Time;durP1;ratioP1;P1;durP2;ratioP2;P2;SDS_P1;SDS_P2;PMS_P1;PMS_P2;Temp;Humidity;BMP_temperature;BMP_pressure;BME280_temperature;BME280_humidity;BME280_pressure;Samples;Min_cycle;Max_cycle;Signal;HPM_P1;HPM_P2
2022/08/15 00:00:34;;;;;;;24.60;21.67;;;18.50;99.90;;;17.87;100.00;100242.78;4136386;28;20478;-77
2022/08/15 00:02:35;;;;;;;28.52;21.98;;;18.50;99.90;;;17.81;100.00;100230.31;4135035;28;20117;-77
2022/08/15 00:04:35;;;;;;;26.85;22.10;;;18.50;99.90;;;17.96;100.00;100253.00;4134878;28;20588;-77
2022/08/15 00:06:42;;;;;;;28.98;21.10;;;18.50;99.90;;;17.90;100.00;100229.03;4136034;28;20084;-77
2022/08/15 00:08:50;;;;;;;25.50;22.55;;;18.60;99.90;;;17.83;100.00;100230.94;4135136;28;20042;-77
2022/08/15 00:10:50;;;;;;;29.45;24.33;;;18.50;99.90;;;17.78;100.00;100222.75;4135013;28;20030;-77
2022/08/15 00:12:51;;;;;;;32.08;23.65;;;18.50;99.90;;;17.74;100.00;100233.03;4134626;28;20112;-77
2022/08/15 00:14:53;;;;;;;28.30;23.45;;;18.40;99.90;;;17.68;100.00;100231.25;4135453;28;20022;-78
2022/08/15 00:16:55;;;;;;;25.63;21.80;;;18.40;99.90;;;17.47;100.00;100216.31;4134852;28;20026;-77
2022/08/15 00:18:55;;;;;;;30.75;24.85;;;18.30;99.90;;;17.58;100.00;100242.38;4133678;28;20070;-77
2022/08/15 00:20:56;;;;;;;28.02;24.70;;;18.20;99.90;;;17.48;100.00;100233.97;4129374;28;20398;-77
2022/08/15 00:22:57;;;;;;;27.23;24.30;;;18.20;99.90;;;17.46;100.00;100235.22;4118671;28;20363;-77
2022/08/15 00:24:58;;;;;;;31.48;23.35;;;18.10;99.90;;;17.35;100.00;100234.00;4120106;28;20035;-77
2022/08/15 00:27:03;;;;;;;29.33;21.98;;;18.10;99.90;;;17.28;100.00;100227.91;4133836;28;20026;-77
2022/08/15 00:29:06;;;;;;;33.72;24.92;;;18.00;99.90;;;17.27;100.00;100234.25;4134938;28;20070;-77
2022/08/15 00:31:10;;;;;;;28.88;24.67;;;17.90;99.90;;;17.25;100.00;100244.34;4135871;28;20038;-77
2022/08/15 00:33:12;;;;;;;;;;;17.90;99.90;;;17.12;100.00;100231.03;4135071;28;20026;-77
2022/08/15 00:37:32;;;;;;;32.67;25.08;;;17.70;99.90;;;17.02;100.00;100233.34;4134884;28;20041;-77
2022/08/15 00:39:34;;;;;;;31.20;26.17;;;17.70;99.90;;;16.99;100.00;100234.56;4134709;28;20470;-77
2022/08/15 00:41:41;;;;;;;28.55;24.85;;;17.60;99.90;;;16.97;100.00;100225.97;4135951;28;20033;-78
2022/08/15 00:43:53;;;;;;;31.15;24.85;;;17.60;99.90;;;16.95;100.00;100225.38;4134652;28;20026;-77
2022/08/15 00:45:54;;;;;;;28.75;24.52;;;17.50;99.90;;;16.84;100.00;100225.22;4134771;28;20113;-77
2022/08/15 00:50:15;;;;;;;33.83;26.98;;;17.50;99.90;;;16.83;100.00;100218.22;4136110;28;20088;-78
2022/08/15 00:52:25;;;;;;;34.15;29.58;;;17.50;99.90;;;16.90;100.00;100225.19;4134382;28;20576;-77
2022/08/15 00:54:44;;;;;;;30.60;27.40;;;17.50;99.90;;;16.88;100.00;100227.22;4134507;28;20089;-78
2022/08/15 00:57:03;;;;;;;33.55;27.88;;;17.40;99.90;;;16.82;100.00;100228.06;4135754;28;20031;-77
2022/08/15 00:59:07;;;;;;;36.83;28.67;;;17.40;99.90;;;16.81;100.00;100222.97;4119813;28;20023;-77
2022/08/15 01:01:12;;;;;;;30.20;26.08;;;17.40;99.90;;;16.82;100.00;100229.91;4134864;28;20113;-77
2022/08/15 01:03:32;;;;;;;28.58;25.42;;;17.40;99.90;;;16.67;100.00;100205.34;4134636;28;20022;-78
2022/08/15 01:05:34;;;;;;;32.08;26.73;;;17.40;99.90;;;16.75;100.00;100221.13;4134310;28;20030;-77
2022/08/15 01:07:35;;;;;;;35.85;27.20;;;17.30;99.90;;;16.73;100.00;100209.84;4137089;28;20026;-78
2022/08/15 01:09:37;;;;;;;36.58;29.45;;;17.30;99.90;;;16.74;100.00;100214.16;4137633;28;20505;-77
2022/08/15 01:11:52;;;;;;;35.58;29.60;;;17.30;99.90;;;16.76;100.00;100218.25;4137614;28;20030;-78
2022/08/15 01:13:56;;;;;;;32.45;29.02;;;17.30;99.90;;;16.72;100.00;100216.22;4137663;28;20030;-77
2022/08/15 01:15:57;;;;;;;32.60;26.15;;;17.30;99.90;;;16.66;100.00;100207.22;4121340;28;20090;-77
2022/08/15 01:17:58;;;;;;;36.28;30.13;;;17.30;99.90;;;16.69;100.00;100208.66;4137318;28;20050;-77
2022/08/15 01:20:20;;;;;;;36.05;28.42;;;17.30;99.90;;;16.70;100.00;100207.59;4126362;28;20110;-77
2022/08/15 01:22:49;;;;;;;36.17;27.80;;;17.30;99.90;;;16.67;100.00;100208.00;4121249;28;20081;-77
2022/08/15 01:25:12;;;;;;;40.40;30.67;;;17.30;99.90;;;16.67;100.00;100202.69;4137142;28;20509;-77
2022/08/15 01:27:15;;;;;;;36.40;30.57;;;17.30;99.90;;;16.62;100.00;100197.19;4110691;28;20038;-77
2022/08/15 01:29:18;;;;;;;39.35;29.23;;;17.30;99.90;;;16.63;100.00;100198.81;4105422;28;20279;-77
2022/08/15 01:31:22;;;;;;;35.37;28.50;;;17.20;99.90;;;16.66;100.00;100196.56;4127457;28;20587;-77
2022/08/15 01:33:24;;;;;;;38.35;29.88;;;17.30;99.90;;;16.64;100.00;100195.13;4120859;28;20026;-78
2022/08/15 01:35:28;;;;;;;37.15;29.90;;;17.30;99.90;;;16.67;100.00;100194.69;4121252;28;20410;-78
2022/08/15 01:37:30;;;;;;;32.47;26.60;;;17.20;99.90;;;16.52;100.00;100181.59;4136942;28;20034;-77
2022/08/15 01:39:38;;;;;;;38.30;29.60;;;17.20;99.90;;;16.59;100.00;100201.91;4137068;28;20034;-77
2022/08/15 01:42:14;;;;;;;39.92;30.35;;;17.20;99.90;;;16.64;100.00;100200.44;4136914;28;20033;-77
2022/08/15 01:44:37;;;;;;;36.30;29.63;;;17.20;99.90;;;16.59;100.00;100196.56;4138251;28;20034;-78
2022/08/15 01:46:56;;;;;;;39.67;28.55;;;17.20;99.90;;;16.62;100.00;100206.00;4122174;28;20509;-78
2022/08/15 01:49:12;;;;;;;37.10;27.73;;;17.20;99.90;;;16.62;100.00;100207.81;4137227;28;20497;-77
2022/08/15 01:51:16;;;;;;;42.58;31.27;;;17.20;99.90;;;16.54;100.00;100201.72;4136829;28;20513;-77
2022/08/15 01:53:54;;;;;;;39.78;30.05;;;17.20;99.90;;;16.62;100.00;100205.16;4137860;28;20022;-78
2022/08/15 01:56:11;;;;;;;36.00;29.88;;;17.20;99.90;;;16.61;100.00;100203.56;4146881;28;20038;-78
2022/08/15 01:58:12;;;;;;;35.60;31.02;;;17.20;99.90;;;16.62;100.00;100206.00;4136982;28;20119;-77
2022/08/15 02:00:17;;;;;;;40.95;29.98;;;17.20;99.90;;;16.60;100.00;100202.72;4138350;28;20038;-77
2022/08/15 02:02:17;;;;;;;35.72;28.90;;;17.20;99.90;;;16.65;100.00;100213.56;4138118;28;20038;-77
2022/08/15 02:04:28;;;;;;;32.78;26.85;;;17.20;99.90;;;16.66;100.00;100207.22;4137812;28;20454;-78
2022/08/15 02:06:30;;;;;;;42.50;31.00;;;17.20;99.90;;;16.72;100.00;100210.88;4136551;28;20527;-77
2022/08/15 02:08:31;;;;;;;41.50;30.17;;;17.30;99.90;;;16.66;100.00;100201.06;4136586;28;20033;-77
2022/08/15 02:10:32;;;;;;;42.25;31.70;;;17.30;99.90;;;16.75;100.00;100213.13;4136608;28;20087;-77
2022/08/15 02:12:37;;;;;;;38.45;30.95;;;17.30;99.90;;;16.78;100.00;100210.06;4137814;28;20034;-78
2022/08/15 02:14:41;;;;;;;46.17;32.20;;;17.30;99.90;;;16.76;100.00;100193.44;4137988;28;20038;-78
2022/08/15 02:16:43;;;;;;;40.35;29.42;;;17.40;99.90;;;16.77;100.00;100193.25;4136544;28;20170;-77
2022/08/15 02:18:44;;;;;;;38.38;28.88;;;17.40;99.90;;;16.74;100.00;100190.19;4134677;28;20070;-77
2022/08/15 02:20:45;;;;;;;34.97;26.88;;;17.40;99.90;;;16.80;100.00;100195.50;4132538;28;20027;-77
2022/08/15 02:22:46;;;;;;;34.75;29.30;;;17.40;99.90;;;16.82;100.00;100192.59;4104067;29;20031;-77
2022/08/15 02:24:47;;;;;;;43.83;30.15;;;17.40;99.90;;;16.85;100.00;100187.69;4121388;28;20046;-77
2022/08/15 02:26:51;;;;;;;37.65;29.42;;;17.40;99.90;;;16.85;100.00;100185.03;4121359;28;20030;-77
2022/08/15 02:28:52;;;;;;;;;;;17.40;99.90;;;16.78;100.00;100178.91;4120755;28;20122;-77
2022/08/15 02:30:53;;;;;;;39.38;29.75;;;17.40;99.90;;;16.75;100.00;100181.19;4120260;28;19976;-78
2022/08/15 02:32:56;;;;;;;40.97;29.83;;;17.40;99.90;;;16.76;100.00;100180.13;4120082;28;20498;-77
2022/08/15 02:34:59;;;;;;;40.03;29.67;;;17.40;99.90;;;16.79;100.00;100180.53;4120072;28;20027;-78
2022/08/15 02:37:03;;;;;;;36.60;27.15;;;17.40;99.90;;;16.86;100.00;100191.16;4103863;29;20438;-77
2022/08/15 02:39:09;;;;;;;37.45;29.90;;;17.40;99.90;;;16.89;100.00;100186.25;4121283;28;20079;-77
2022/08/15 02:41:11;;;;;;;36.15;29.42;;;17.50;99.90;;;16.98;100.00;100189.50;4137643;28;20030;-77
2022/08/15 02:43:15;;;;;;;34.92;27.30;;;17.50;99.90;;;16.87;100.00;100172.34;4135982;28;20100;-78
2022/08/15 02:45:16;;;;;;;38.10;28.55;;;17.50;99.90;;;16.95;100.00;100189.91;4136125;28;20109;-77
2022/08/15 02:47:18;;;;;;;38.22;29.92;;;17.50;99.90;;;16.97;100.00;100182.50;4119756;28;20027;-77
2022/08/15 02:49:20;;;;;;;37.63;29.75;;;17.60;99.90;;;17.13;100.00;100184.72;4135883;28;20041;-77
2022/08/15 02:51:22;;;;;;;31.38;27.67;;;17.60;99.90;;;17.07;100.00;100183.72;4135504;28;20037;-77
2022/08/15 02:53:23;;;;;;;33.35;28.65;;;17.70;99.90;;;17.02;100.00;100180.84;4119787;28;20023;-77
2022/08/15 02:55:24;;;;;;;34.08;28.23;;;17.70;99.90;;;17.05;100.00;100190.28;4137335;28;20042;-77
2022/08/15 02:57:27;;;;;;;34.85;29.45;;;17.70;99.90;;;17.03;100.00;100177.16;4119989;28;20038;-77
2022/08/15 02:59:28;;;;;;;33.90;28.33;;;17.70;99.90;;;17.07;100.00;100172.25;4135690;28;20023;-77
2022/08/15 03:01:30;;;;;;;37.60;28.23;;;17.70;99.90;;;17.08;100.00;100174.69;4135964;28;20034;-77
2022/08/15 03:03:31;;;;;;;31.80;27.13;;;17.80;99.90;;;17.09;100.00;100178.16;4135817;28;20027;-78
2022/08/15 03:05:35;;;;;;;31.85;26.50;;;17.70;99.90;;;17.07;100.00;100173.06;4135832;28;20081;-77
2022/08/15 03:07:36;;;;;;;32.70;26.98;;;17.70;99.90;;;17.07;100.00;100172.25;4136555;28;20026;-77
2022/08/15 03:09:37;;;;;;;30.35;25.70;;;17.70;99.90;;;17.07;100.00;100172.25;4135670;28;20041;-77
2022/08/15 03:11:41;;;;;;;28.92;25.10;;;17.70;99.90;;;17.01;100.00;100162.44;4136934;28;20041;-77
2022/08/15 03:13:42;;;;;;;;;;;17.70;99.90;;;16.97;100.00;100169.19;4136071;28;20027;-77
2022/08/15 03:15:55;;;;;;;32.35;28.27;;;17.70;99.90;;;16.98;100.00;100163.66;4135823;28;19917;-77
2022/08/15 03:17:56;;;;;;;33.85;27.98;;;17.70;99.90;;;17.01;100.00;100162.44;4135543;28;20046;-77
2022/08/15 03:19:57;;;;;;;40.22;30.90;;;17.70;99.90;;;17.05;100.00;100159.09;4108767;28;20041;-77
2022/08/15 03:21:58;;;;;;;40.33;28.42;;;17.70;99.90;;;17.17;100.00;100171.78;4120347;28;20031;-77
2022/08/15 03:23:59;;;;;;;36.95;29.55;;;17.80;99.90;;;17.24;100.00;100165.38;4119551;28;20030;-77
2022/08/15 03:26:02;;;;;;;36.58;28.65;;;17.80;99.90;;;17.38;100.00;100169.59;4119133;28;20031;-77
2022/08/15 03:28:04;;;;;;;31.77;28.20;;;17.90;99.90;;;17.37;100.00;100178.66;4120550;28;20035;-77
2022/08/15 03:30:07;;;;;;;38.47;29.25;;;18.00;99.90;;;17.34;100.00;100152.41;4119232;28;20266;-77
2022/08/15 03:32:12;;;;;;;35.50;27.58;;;18.00;99.90;;;17.38;100.00;100166.16;4107876;28;20035;-77
2022/08/15 03:34:15;;;;;;;31.48;26.27;;;18.00;99.90;;;17.38;100.00;100164.28;4135545;28;20493;-77
2022/08/15 03:36:19;;;;;;;30.00;25.88;;;18.10;99.90;;;17.53;100.00;100169.34;4135073;28;20026;-77
2022/08/15 03:38:20;;;;;;;33.42;24.80;;;18.10;99.90;;;17.53;100.00;100166.66;4136324;28;20027;-77
2022/08/15 03:40:22;;;;;;;34.47;26.25;;;18.10;99.90;;;17.52;100.00;100160.50;4136589;28;20034;-77
2022/08/15 03:42:25;;;;;;;30.17;25.75;;;18.20;99.90;;;17.53;100.00;100162.13;4136341;28;20040;-77
2022/08/15 03:44:26;;;;;;;32.30;24.80;;;18.20;99.90;;;17.43;100.00;100145.81;4135279;28;20023;-77
2022/08/15 03:46:27;;;;;;;29.33;25.65;;;18.20;99.90;;;17.58;100.00;100159.69;4134980;28;20336;-77
2022/08/15 03:48:34;;;;;;;28.23;23.02;;;18.20;99.90;;;17.59;100.00;100160.50;4118983;28;20041;-77
2022/08/15 03:50:35;;;;;;;35.10;25.90;;;18.20;99.90;;;17.51;100.00;100158.88;4136270;28;20034;-77
2022/08/15 03:52:53;;;;;;;30.67;25.35;;;18.10;99.90;;;17.53;100.00;100158.66;4118371;28;20081;-77
2022/08/15 03:54:54;;;;;;;35.97;26.95;;;18.10;99.90;;;17.47;100.00;100156.88;4136363;28;20027;-77
2022/08/15 03:56:55;;;;;;;33.75;25.77;;;18.10;99.90;;;17.35;100.00;100139.91;4135163;28;20030;-77
2022/08/15 03:58:58;;;;;;;33.35;24.55;;;18.10;99.90;;;17.32;100.00;100153.66;4135223;28;20018;-77
2022/08/15 04:00:59;;;;;;;30.33;24.58;;;18.00;99.90;;;17.25;100.00;100155.53;4118546;28;20052;-78
2022/08/15 04:03:13;;;;;;;32.38;28.48;;;18.00;99.90;;;17.19;100.00;100153.72;4135883;28;20034;-77
2022/08/15 04:05:14;;;;;;;34.40;26.95;;;17.90;99.90;;;17.17;100.00;100159.28;4136212;28;20060;-77
2022/08/15 04:07:16;;;;;;;30.83;26.35;;;17.90;99.90;;;16.97;100.00;100135.38;4134804;28;20525;-78
2022/08/15 04:09:17;;;;;;;32.70;25.33;;;17.80;99.90;;;17.16;100.00;100168.31;4134990;28;20041;-77
2022/08/15 04:11:21;;;;;;;31.50;27.52;;;17.80;99.90;;;17.25;100.00;100169.69;4118735;28;20139;-77
2022/08/15 04:13:25;;;;;;;36.67;28.73;;;17.80;99.90;;;17.23;100.00;100171.75;4151063;28;20513;-77
2022/08/15 04:15:27;;;;;;;33.88;25.95;;;17.80;99.90;;;17.17;100.00;100168.06;4136279;28;20555;-77
2022/08/15 04:17:28;;;;;;;33.20;26.40;;;17.80;99.90;;;17.19;100.00;100161.72;4134813;28;20050;-77
2022/08/15 04:19:29;;;;;;;33.90;27.95;;;17.80;99.90;;;17.15;100.00;100156.81;4127973;28;20034;-77
2022/08/15 04:21:30;;;;;;;33.60;27.05;;;17.90;99.90;;;17.24;100.00;100173.38;4128505;28;20121;-77
2022/08/15 04:23:32;;;;;;;30.27;24.70;;;17.90;99.90;;;17.26;100.00;100166.00;4134710;28;20076;-77
2022/08/15 04:25:40;;;;;;;29.40;24.85;;;17.90;99.90;;;17.30;100.00;100172.53;4126264;28;20066;-77
2022/08/15 04:27:41;;;;;;;36.00;26.50;;;17.90;99.90;;;17.34;100.00;100171.09;4118797;28;20518;-77
2022/08/15 04:29:42;;;;;;;31.95;26.30;;;18.00;99.90;;;17.35;100.00;100163.91;4118726;28;20093;-77
2022/08/15 04:31:43;;;;;;;33.78;26.15;;;18.00;99.90;;;17.44;100.00;100176.75;4118708;28;20027;-77
2022/08/15 04:33:45;;;;;;;31.45;24.48;;;18.00;99.90;;;17.37;100.00;100160.00;4119973;28;20027;-77
2022/08/15 04:35:56;;;;;;;31.92;24.77;;;18.00;99.90;;;17.48;100.00;100163.81;4118830;28;20103;-77
2022/08/15 04:37:58;;;;;;;35.92;27.58;;;18.10;99.90;;;17.49;100.00;100166.28;4114851;28;20031;-77
2022/08/15 04:39:59;;;;;;;32.70;26.52;;;18.10;99.90;;;17.50;100.00;100154.56;4134617;28;20034;-77
2022/08/15 04:42:01;;;;;;;33.05;26.20;;;18.10;99.90;;;17.54;100.00;100152.28;4137056;28;20034;-77
2022/08/15 04:44:07;;;;;;;33.13;24.65;;;18.20;99.90;;;17.52;100.00;100157.84;4115764;28;20027;-77
2022/08/15 04:46:08;;;;;;;29.70;26.02;;;18.20;99.90;;;17.49;100.00;100160.94;4154054;28;20057;-77
2022/08/15 04:48:14;;;;;;;27.85;24.85;;;18.10;99.90;;;17.42;100.00;100138.81;4138938;28;20110;-77
2022/08/15 04:50:15;;;;;;;28.50;25.45;;;18.20;99.90;;;17.49;100.00;100149.44;4121978;28;20042;-77
2022/08/15 04:52:20;;;;;;;29.50;24.88;;;18.20;99.90;;;17.53;100.00;100156.00;4137556;28;20031;-77
2022/08/15 04:54:20;;;;;;;32.00;24.20;;;18.20;99.90;;;17.56;100.00;100160.94;4121794;28;20553;-77
2022/08/15 04:56:22;;;;;;;30.02;24.58;;;18.20;99.90;;;17.56;100.00;100156.41;4139184;28;20022;-77
2022/08/15 04:58:23;;;;;;;25.23;22.45;;;18.20;99.90;;;17.58;100.00;100157.03;4139086;28;20022;-77
2022/08/15 05:00:31;;;;;;;27.23;23.42;;;18.20;99.90;;;17.63;100.00;100157.19;4130981;28;20015;-77
2022/08/15 05:02:32;;;;;;;30.50;24.50;;;18.20;99.90;;;17.62;100.00;100160.88;4136590;28;20448;-77
2022/08/15 05:04:33;;;;;;;25.90;22.25;;;18.30;99.90;;;17.66;100.00;100162.09;4137781;28;20033;-77
2022/08/15 05:06:34;;;;;;;26.65;23.02;;;18.30;99.90;;;17.67;100.00;100153.06;4137463;28;20034;-77
2022/08/15 05:08:38;;;;;;;28.23;23.98;;;18.30;99.90;;;17.66;100.00;100150.59;4138888;28;20085;-77
2022/08/15 05:10:39;;;;;;;;;;;18.30;99.90;;;17.65;100.00;100165.78;4139019;28;20034;-77
2022/08/15 05:12:40;;;;;;;32.45;24.30;;;18.30;99.90;;;17.63;100.00;100159.03;4121588;28;19914;-77
2022/08/15 05:14:41;;;;;;;26.25;22.95;;;18.30;99.90;;;17.77;100.00;100167.78;4137446;28;20046;-77
2022/08/15 05:16:42;;;;;;;26.80;22.00;;;18.40;99.90;;;17.75;100.00;100164.47;4137352;28;20509;-77
2022/08/15 05:18:43;;;;;;;24.80;22.00;;;18.40;99.90;;;17.77;100.00;100165.09;4137573;28;20125;-77
2022/08/15 05:20:45;;;;;;;26.55;22.23;;;18.40;99.90;;;17.78;100.00;100166.72;4133805;28;20023;-77
2022/08/15 05:23:00;;;;;;;29.90;24.23;;;18.40;99.90;;;17.86;100.00;100166.47;4137184;28;20483;-77
2022/08/15 05:25:01;;;;;;;24.52;21.25;;;18.40;99.90;;;17.78;100.00;100164.88;4115653;28;20146;-77
2022/08/15 05:27:05;;;;;;;28.23;22.73;;;18.40;99.90;;;17.78;100.00;100161.38;4136906;28;20026;-77
2022/08/15 05:29:09;;;;;;;25.75;22.98;;;18.50;99.90;;;17.86;100.00;100174.47;4153476;28;20041;-77
2022/08/15 05:31:12;;;;;;;29.00;23.55;;;18.50;99.90;;;17.88;100.00;100169.72;4121258;28;20035;-77
2022/08/15 05:33:19;;;;;;;29.38;22.60;;;18.50;99.90;;;17.78;100.00;100153.38;4137163;28;20031;-77
2022/08/15 05:35:19;;;;;;;28.00;21.58;;;18.50;99.90;;;17.92;100.00;100170.94;4121090;28;20034;-77
2022/08/15 05:37:21;;;;;;;26.17;21.65;;;18.50;99.90;;;17.90;100.00;100162.31;4138257;28;20034;-77
2022/08/15 05:39:27;;;;;;;29.73;22.58;;;18.50;99.90;;;17.96;100.00;100166.78;4137272;28;20057;-77
2022/08/15 05:41:50;;;;;;;24.38;21.60;;;18.60;99.90;;;17.97;100.00;100179.09;4138288;28;20054;-77
2022/08/15 05:44:12;;;;;;;25.25;22.52;;;18.60;99.90;;;17.96;100.00;100172.13;4136952;28;20120;-77
2022/08/15 05:46:44;;;;;;;25.45;21.33;;;18.60;99.90;;;17.99;100.00;100169.00;4138384;28;20525;-77
2022/08/15 05:48:49;;;;;;;24.05;21.48;;;18.70;99.90;;;18.12;100.00;100183.09;4138391;28;20030;-77
2022/08/15 05:51:13;;;;;;;26.35;20.88;;;18.70;99.90;;;18.21;100.00;100167.59;4136988;28;20038;-77
2022/08/15 05:53:31;;;;;;;22.13;19.83;;;18.80;99.90;;;18.36;100.00;100168.06;4136991;28;20088;-77
2022/08/15 05:56:02;;;;;;;27.80;20.85;;;19.00;99.90;;;18.57;100.00;100173.03;4137113;28;20497;-77
2022/08/15 05:58:43;;;;;;;23.02;20.48;;;19.10;99.90;;;18.65;100.00;100172.72;4122179;28;20501;-77
2022/08/15 06:00:57;;;;;;;23.83;19.02;;;19.20;99.90;;;18.71;100.00;100165.69;4136694;28;20037;-77
2022/08/15 06:03:11;;;;;;;;;;;19.30;99.90;;;18.74;100.00;100176.75;4124814;28;20066;-78
2022/08/15 06:05:27;;;;;;;23.53;21.13;;;19.40;99.90;;;18.69;100.00;100160.56;4113221;28;19910;-78
2022/08/15 06:07:30;;;;;;;24.08;21.52;;;19.40;99.90;;;18.81;100.00;100170.50;4123158;28;20516;-78
2022/08/15 06:09:50;;;;;;;24.90;21.45;;;19.40;99.90;;;18.85;100.00;100175.16;4132196;28;20089;-78
2022/08/15 06:11:55;;;;;;;27.23;20.27;;;19.50;99.90;;;18.78;100.00;100161.91;4120689;28;20039;-77
2022/08/15 06:14:02;;;;;;;23.35;20.10;;;19.40;99.90;;;18.84;100.00;100167.38;4120477;28;20023;-77
2022/08/15 06:16:06;;;;;;;23.13;19.45;;;19.50;99.90;;;18.92;100.00;100175.09;4120596;28;20058;-78
2022/08/15 06:18:10;;;;;;;23.95;21.08;;;19.50;99.90;;;18.96;100.00;100170.94;4121673;28;20054;-78
2022/08/15 06:20:19;;;;;;;24.63;21.92;;;19.60;99.90;;;18.73;100.00;100152.91;4120378;28;20027;-78
2022/08/15 06:22:46;;;;;;;25.88;21.48;;;19.50;99.90;;;18.84;100.00;100173.56;4104222;28;20039;-77
2022/08/15 06:25:09;;;;;;;23.02;20.40;;;19.50;99.90;;;18.87;100.00;100175.78;4120068;28;20058;-77
2022/08/15 06:27:55;;;;;;;24.73;21.52;;;19.50;99.90;;;18.68;100.00;100145.56;4111186;28;20034;-77
2022/08/15 06:30:16;;;;;;;27.35;23.02;;;19.50;99.90;;;18.89;100.00;100173.69;4137259;28;20034;-77
2022/08/15 06:32:40;;;;;;;30.75;22.67;;;19.60;99.90;;;18.94;100.00;100165.00;4136313;28;20031;-77
2022/08/15 06:35:16;;;;;;;28.58;23.50;;;19.60;99.90;;;19.01;100.00;100177.25;4131357;28;20023;-77
2022/08/15 06:37:29;;;;;;;28.08;22.10;;;19.60;99.90;;;18.97;100.00;100169.88;4135960;28;20118;-77
2022/08/15 06:39:43;;;;;;;28.90;23.13;;;19.70;99.90;;;18.98;100.00;100161.66;4152264;28;20478;-79
2022/08/15 06:41:58;;;;;;;22.83;19.98;;;19.80;99.90;;;19.21;100.00;100183.16;4120579;28;20506;-80
2022/08/15 06:44:01;;;;;;;26.55;22.42;;;19.80;99.90;;;19.17;100.00;100186.50;4137316;28;20030;-82
2022/08/15 06:46:05;;;;;;;29.20;22.85;;;19.90;99.90;;;19.09;100.00;100179.59;4136129;28;20053;-79
2022/08/15 06:48:10;;;;;;;;;;;19.90;99.90;;;18.99;100.00;100168.66;4136334;28;20042;-79
2022/08/15 06:50:26;;;;;;;31.92;22.55;;;19.80;99.90;;;19.30;100.00;100194.34;4135895;28;20343;-79
2022/08/15 06:52:29;;;;;;;28.40;21.50;;;19.90;99.90;;;19.18;100.00;100177.44;4120563;28;20034;-78
2022/08/15 06:54:29;;;;;;;34.45;23.13;;;19.90;99.90;;;19.32;100.00;100200.31;4136045;28;20081;-81
2022/08/15 06:56:33;;;;;;;26.40;22.77;;;20.00;99.90;;;19.26;100.00;100201.22;4135975;28;20023;-79
2022/08/15 06:59:14;;;;;;;25.92;21.85;;;20.00;99.90;;;19.21;100.00;100185.81;4136242;28;20034;-79
2022/08/15 07:01:53;;;;;;;25.23;21.90;;;20.00;99.90;;;19.51;100.00;100207.25;4135379;28;20034;-77
2022/08/15 07:04:13;;;;;;;30.83;22.48;;;20.00;99.90;;;19.46;100.00;100200.97;4135951;28;20034;-78
2022/08/15 07:06:19;;;;;;;26.05;23.25;;;20.10;99.90;;;19.33;100.00;100191.22;4136939;28;20030;-81
2022/08/15 07:08:36;;;;;;;27.15;22.30;;;20.10;99.90;;;19.28;100.00;100215.97;4135774;28;20042;-77
2022/08/15 07:10:50;;;;;;;25.73;22.90;;;20.00;99.90;;;19.29;100.00;100203.44;4114302;28;20082;-79
2022/08/15 07:13:12;;;;;;;23.00;20.52;;;20.00;99.90;;;19.32;100.00;100205.66;4135733;28;20035;-79
2022/08/15 07:15:59;;;;;;;25.23;20.33;;;20.00;99.90;;;19.37;100.00;100219.16;4136782;28;20030;-77
2022/08/15 07:18:22;;;;;;;28.75;23.25;;;20.00;99.90;;;19.43;100.00;100229.00;4136676;28;20058;-75
2022/08/15 07:20:23;;;;;;;28.00;21.98;;;20.00;99.90;;;19.37;100.00;100189.75;4122080;28;20638;-75
2022/08/15 07:22:25;;;;;;;29.23;20.85;;;20.10;99.90;;;19.41;100.00;100209.69;4119617;28;20030;-75
2022/08/15 07:24:30;;;;;;;28.25;21.92;;;20.10;99.90;;;19.71;100.00;100215.03;4120514;28;20490;-76
2022/08/15 07:27:03;;;;;;;24.00;20.45;;;20.20;99.90;;;19.55;100.00;100194.25;4131893;28;20041;-75
2022/08/15 07:29:30;;;;;;;27.17;21.30;;;20.30;99.90;;;19.61;100.00;100196.84;4120564;28;20039;-77
2022/08/15 07:31:34;;;;;;;24.42;20.85;;;20.40;99.90;;;19.61;100.00;100204.88;4136511;28;20030;-78
2022/08/15 07:33:41;;;;;;;22.70;18.70;;;20.40;99.90;;;19.97;100.00;100214.63;4135564;28;20114;-79
2022/08/15 07:35:42;;;;;;;27.42;19.73;;;20.50;99.90;;;19.94;100.00;100193.66;4136562;28;20040;-81
2022/08/15 07:38:06;;;;;;;23.83;18.67;;;20.60;99.90;;;20.00;100.00;100175.84;4135075;28;20030;-79
2022/08/15 07:40:41;;;;;;;21.95;18.92;;;20.80;99.90;;;20.23;100.00;100181.22;4135360;28;20029;-77
2022/08/15 07:42:44;;;;;;;25.13;17.88;;;20.90;99.90;;;20.59;100.00;100201.63;4119543;28;20490;-77
2022/08/15 07:44:57;;;;;;;21.20;18.75;;;21.10;99.90;;;20.86;100.00;100197.41;4135394;28;20034;-78
2022/08/15 07:47:04;;;;;;;23.50;18.55;;;21.40;99.90;;;20.88;100.00;100195.31;4135339;28;20109;-77
2022/08/15 07:49:24;;;;;;;25.40;17.55;;;21.50;99.90;;;20.96;100.00;100184.22;4136492;28;20121;-76
2022/08/15 07:51:38;;;;;;;23.10;18.10;;;21.60;99.90;;;21.18;100.00;100213.91;4135958;28;20479;-77
2022/08/15 07:53:58;;;;;;;23.27;17.70;;;21.80;99.90;;;21.18;100.00;100209.38;4114172;28;20610;-77
2022/08/15 07:56:14;;;;;;;19.77;17.08;;;21.80;99.90;;;20.96;100.00;100201.13;4130632;28;20068;-77
2022/08/15 07:58:19;;;;;;;23.65;17.67;;;21.70;99.90;;;21.02;100.00;100214.66;4119148;28;20027;-77
2022/08/15 08:00:27;;;;;;;23.95;17.15;;;21.70;99.90;;;21.10;100.00;100208.94;4136430;28;20073;-77
2022/08/15 08:02:40;;;;;;;19.50;16.60;;;21.70;99.90;;;21.21;100.00;100216.13;4119675;28;20494;-77
2022/08/15 08:04:41;;;;;;;21.38;16.35;;;21.90;99.90;;;21.22;100.00;100215.06;4135190;28;20034;-77
2022/08/15 08:07:04;;;;;;;23.15;16.67;;;21.90;99.90;;;21.43;98.59;100223.28;4135991;28;20030;-77
2022/08/15 08:10:01;;;;;;;19.02;14.95;;;22.00;99.90;;;21.59;96.99;100219.03;4135534;28;20027;-77
2022/08/15 08:12:31;;;;;;;21.95;15.27;;;22.20;99.90;;;21.59;96.88;100219.03;4134272;28;20080;-77
2022/08/15 08:15:02;;;;;;;19.15;14.13;;;22.30;99.90;;;21.68;98.13;100224.81;4136277;28;20030;-77
2022/08/15 08:17:31;;;;;;;19.20;15.23;;;22.30;99.90;;;21.79;98.67;100229.31;4135265;28;20105;-77
2022/08/15 08:20:05;;;;;;;15.90;13.40;;;22.30;99.90;;;21.93;97.17;100217.22;4127459;28;20035;-77
2022/08/15 08:22:17;;;;;;;21.50;13.50;;;22.50;99.90;;;22.06;97.52;100219.63;4119105;28;20455;-77
2022/08/15 08:24:47;;;;;;;18.75;13.18;;;22.60;99.90;;;22.44;93.65;100229.63;4118691;28;20536;-77
2022/08/15 08:27:06;;;;;;;17.63;14.20;;;22.90;99.90;;;22.53;94.00;100223.59;4096916;28;20046;-77
2022/08/15 08:29:24;;;;;;;14.50;12.65;;;23.10;99.90;;;22.48;91.41;100211.94;4124196;28;20049;-77
2022/08/15 08:32:17;;;;;;;14.77;12.45;;;23.20;99.90;;;22.70;90.81;100210.13;4136043;28;20038;-77
2022/08/15 08:34:40;;;;;;;16.77;13.30;;;23.30;99.90;;;22.57;89.51;100210.47;4136083;28;20038;-77
2022/08/15 08:37:15;;;;;;;14.63;12.27;;;23.30;99.90;;;22.47;92.09;100211.13;4134517;28;20493;-77
2022/08/15 08:39:34;;;;;;;15.50;12.88;;;23.20;99.90;;;22.07;93.87;100215.88;4136088;28;20394;-77
2022/08/15 08:42:18;;;;;;;15.95;12.60;;;22.90;99.90;;;22.16;94.62;100224.34;4134513;28;20042;-77
2022/08/15 08:44:56;;;;;;;12.18;10.88;;;22.70;99.90;;;22.16;93.91;100219.75;4143798;28;20045;-77
2022/08/15 08:46:58;;;;;;;16.75;12.52;;;22.80;99.90;;;21.78;96.13;100233.88;4121635;28;20085;-77